Terminal Aerodrome Forecast
Issued by NWS

Home | Current Version | Previous Version | Text Only | Print | Product List | Glossary On
Versions: 1 2 3 4 5 6 7 8 9 10 11 12 13 14 15 16 17 18 19 20 21
000
FTUS44 KLZK 211100 CCA
TAFPBF
TAF COR
KPBF 211148Z 2112/2212 33004KT 2SM BR SKC
      TEMPO 2112/2114 1/4SM FZFG BKN004
     FM211400 12006KT P6SM SCT050
     FM220300 15006KT P6SM SCT025 BKN050
      TEMPO 2208/2212 4SM BR=

USA.gov is the U.S. government's official web portal to all federal, state and local government web resources and services.